createdAt,value
2023-05-08T00:01:42.046Z,65.36
2023-05-08T00:04:10.157Z,65.29
2023-05-08T00:06:38.031Z,65.02
2023-05-08T00:09:05.996Z,65.21
2023-05-08T00:11:33.781Z,65.28
2023-05-08T00:14:01.605Z,65.27
2023-05-08T00:16:29.918Z,65.25
2023-05-08T00:18:57.724Z,65.04
2023-05-08T00:21:25.456Z,65.10
2023-05-08T00:23:53.171Z,64.95
2023-05-08T00:26:21.763Z,64.45
2023-05-08T00:28:49.525Z,64.04
2023-05-08T00:31:17.562Z,64.12
2023-05-08T00:33:45.384Z,64.30
2023-05-08T00:36:15.687Z,64.60
2023-05-08T00:38:43.769Z,64.77
2023-05-08T00:41:11.469Z,65.00
2023-05-08T00:43:40.141Z,65.22
2023-05-08T00:46:10.173Z,65.28
2023-05-08T00:48:38.650Z,65.13
2023-05-08T00:51:08.268Z,65.12
2023-05-08T00:53:37.402Z,65.33
2023-05-08T00:56:05.684Z,65.33
2023-05-08T00:58:33.606Z,65.34
2023-05-08T01:01:01.550Z,65.30
2023-05-08T01:03:29.764Z,65.37
2023-05-08T01:05:57.651Z,65.21
2023-05-08T01:08:25.608Z,65.05
2023-05-08T01:11:12.094Z,65.26
2023-05-08T01:13:58.757Z,65.57
2023-05-08T01:16:35.857Z,65.71
2023-05-08T01:19:22.399Z,65.98
2023-05-08T01:21:56.122Z,66.03
2023-05-08T01:24:34.044Z,65.98
2023-05-08T01:27:14.694Z,65.99
2023-05-08T01:30:01.183Z,66.02
2023-05-08T01:32:37.520Z,65.87
2023-05-08T01:35:08.765Z,65.77
2023-05-08T01:37:59.039Z,65.65
2023-05-08T01:40:45.527Z,65.86
2023-05-08T01:43:19.908Z,65.85
2023-05-08T01:45:50.297Z,65.73
2023-05-08T01:48:22.684Z,65.52
2023-05-08T01:50:55.826Z,65.42
2023-05-08T01:53:26.240Z,65.57
2023-05-08T01:55:57.133Z,65.57
2023-05-08T01:58:25.578Z,65.86
2023-05-08T02:00:53.739Z,66.06
2023-05-08T02:03:23.721Z,66.15
2023-05-08T02:05:52.323Z,66.35
2023-05-08T02:08:22.498Z,66.45
2023-05-08T02:10:51.800Z,66.28
2023-05-08T02:13:21.500Z,66.32
2023-05-08T02:15:50.235Z,66.28
2023-05-08T02:18:22.348Z,66.38
2023-05-08T02:20:51.494Z,66.71
2023-05-08T02:23:20.785Z,66.77
2023-05-08T02:25:49.913Z,66.91
2023-05-08T02:28:18.745Z,66.96
2023-05-08T02:30:47.348Z,67.22
2023-05-08T02:33:16.223Z,67.32
2023-05-08T02:35:45.984Z,67.45
2023-05-08T02:38:14.618Z,67.58
2023-05-08T02:40:46.030Z,67.57
2023-05-08T02:43:13.896Z,67.66
2023-05-08T02:45:48.756Z,67.74
2023-05-08T02:48:25.009Z,67.57
2023-05-08T02:51:20.069Z,67.68
2023-05-08T02:53:52.987Z,67.69
2023-05-08T02:56:38.293Z,67.71
2023-05-08T02:59:13.123Z,67.66
2023-05-08T03:01:44.253Z,67.60
2023-05-08T03:04:15.560Z,67.53
2023-05-08T03:06:45.769Z,67.52
2023-05-08T03:09:19.159Z,67.31
2023-05-08T03:11:49.676Z,67.46
2023-05-08T03:14:20.744Z,67.71
2023-05-08T03:16:50.674Z,67.99
2023-05-08T03:19:27.273Z,67.90
2023-05-08T03:21:55.963Z,67.96
2023-05-08T03:24:24.484Z,67.97
2023-05-08T03:26:52.615Z,67.91
2023-05-08T03:29:20.850Z,67.99
2023-05-08T03:31:48.966Z,67.75
2023-05-08T03:34:19.254Z,67.89
2023-05-08T03:36:47.109Z,67.79
2023-05-08T03:39:15.651Z,67.63
2023-05-08T03:41:43.716Z,67.70
2023-05-08T03:44:12.143Z,67.69
2023-05-08T03:46:40.864Z,67.43
2023-05-08T03:49:09.563Z,67.16
2023-05-08T03:51:40.315Z,66.97
2023-05-08T03:54:08.851Z,66.70
2023-05-08T03:56:36.868Z,66.69
2023-05-08T03:59:17.340Z,66.63
2023-05-08T04:02:18.188Z,66.69
2023-05-08T04:04:48.186Z,66.73
2023-05-08T04:07:37.576Z,66.85
2023-05-08T04:10:13.671Z,66.91
2023-05-08T04:12:51.925Z,66.75
2023-05-08T04:15:24.638Z,66.23
2023-05-08T04:17:59.254Z,66.14
2023-05-08T04:20:27.664Z,65.83
2023-05-08T04:22:57.878Z,65.07
2023-05-08T04:25:26.472Z,64.65
2023-05-08T04:27:56.357Z,64.33
2023-05-08T04:30:25.002Z,64.06
2023-05-08T04:32:53.924Z,63.66
2023-05-08T04:35:21.981Z,63.43
2023-05-08T04:37:50.273Z,63.26
2023-05-08T04:40:18.232Z,63.29
2023-05-08T04:42:47.936Z,63.00
2023-05-08T04:45:17.817Z,62.42
2023-05-08T04:47:46.022Z,62.02
2023-05-08T04:50:14.486Z,61.68
2023-05-08T04:52:43.037Z,61.64
2023-05-08T04:55:11.705Z,61.60
2023-05-08T04:57:39.860Z,61.19
2023-05-08T05:00:08.090Z,60.68
2023-05-08T05:02:39.119Z,60.13
2023-05-08T05:05:08.092Z,58.97
2023-05-08T05:07:35.945Z,58.39
2023-05-08T05:10:04.275Z,58.39
2023-05-08T05:12:32.896Z,57.52
2023-05-08T05:15:00.772Z,56.61
2023-05-08T05:17:31.122Z,56.01
2023-05-08T05:19:59.951Z,55.71
2023-05-08T05:22:28.769Z,55.52
2023-05-08T05:24:56.777Z,55.28
2023-05-08T05:27:25.246Z,55.16
2023-05-08T05:29:53.006Z,55.27
2023-05-08T05:32:21.161Z,55.41
2023-05-08T05:34:49.633Z,54.95
2023-05-08T05:37:17.532Z,54.88
2023-05-08T05:39:45.620Z,55.49
2023-05-08T05:42:14.001Z,55.53
2023-05-08T05:44:42.203Z,55.12
2023-05-08T05:47:11.131Z,54.95
2023-05-08T05:49:43.047Z,55.38
2023-05-08T05:52:11.682Z,55.38
2023-05-08T05:54:39.598Z,55.21
2023-05-08T05:57:08.112Z,55.06
2023-05-08T05:59:35.900Z,54.84
2023-05-08T06:02:04.048Z,54.78
2023-05-08T06:04:32.058Z,55.13
2023-05-08T06:06:59.914Z,55.01
2023-05-08T06:09:27.637Z,54.83
2023-05-08T06:11:55.636Z,54.40
2023-05-08T06:14:23.548Z,53.84
2023-05-08T06:16:51.494Z,53.75
2023-05-08T06:19:20.172Z,52.98
2023-05-08T06:21:47.858Z,53.10
2023-05-08T06:24:16.124Z,52.64
2023-05-08T06:26:44.069Z,52.21
2023-05-08T06:29:11.950Z,52.79
2023-05-08T06:31:39.665Z,52.99
2023-05-08T06:34:08.213Z,53.11
2023-05-08T06:36:36.635Z,52.88
2023-05-08T06:39:06.019Z,53.16
2023-05-08T06:41:33.965Z,53.38
2023-05-08T06:44:01.629Z,53.63
2023-05-08T06:46:30.008Z,52.83
2023-05-08T06:48:57.855Z,52.46
2023-05-08T06:51:26.233Z,52.17
2023-05-08T06:53:53.982Z,52.29
2023-05-08T06:56:22.727Z,52.60
2023-05-08T06:58:56.935Z,53.00
2023-05-08T07:01:32.855Z,53.03
2023-05-08T07:04:01.342Z,53.06
2023-05-08T07:06:30.855Z,52.91
2023-05-08T07:08:58.946Z,52.62
2023-05-08T07:11:26.764Z,51.91
2023-05-08T07:13:54.598Z,51.74
2023-05-08T07:16:22.456Z,51.91
2023-05-08T07:18:50.329Z,51.58
2023-05-08T07:21:20.195Z,51.35
2023-05-08T07:23:50.315Z,51.31
2023-05-08T07:26:18.575Z,50.71
2023-05-08T07:28:46.598Z,50.41
2023-05-08T07:31:15.163Z,50.19
2023-05-08T07:33:43.084Z,50.09
2023-05-08T07:36:11.138Z,50.13
2023-05-08T07:38:38.868Z,49.82
2023-05-08T07:41:07.039Z,49.22
2023-05-08T07:43:34.728Z,48.74
2023-05-08T07:46:02.870Z,48.64
2023-05-08T07:48:30.563Z,48.70
2023-05-08T07:50:58.254Z,48.97
2023-05-08T07:53:26.042Z,48.92
2023-05-08T07:55:53.682Z,48.74
2023-05-08T07:58:23.665Z,48.50
2023-05-08T08:00:52.139Z,48.26
2023-05-08T08:03:20.058Z,48.26
2023-05-08T08:05:48.090Z,47.45
2023-05-08T08:08:16.218Z,47.09
2023-05-08T08:10:43.920Z,47.15
2023-05-08T08:13:11.756Z,47.04
2023-05-08T08:15:39.828Z,47.19
2023-05-08T08:18:07.839Z,47.63
2023-05-08T08:20:35.588Z,47.26
2023-05-08T08:23:03.565Z,47.40
2023-05-08T08:25:31.340Z,47.35
2023-05-08T08:27:59.124Z,47.19
2023-05-08T08:30:27.341Z,46.89
2023-05-08T08:32:55.667Z,47.07
2023-05-08T08:35:29.195Z,47.40
2023-05-08T08:37:57.295Z,47.30
2023-05-08T08:40:25.119Z,48.18
2023-05-08T08:42:52.795Z,48.60
2023-05-08T08:45:20.610Z,48.61
2023-05-08T08:47:48.429Z,48.74
2023-05-08T08:50:19.475Z,49.21
2023-05-08T08:52:52.048Z,49.19
2023-05-08T08:55:20.476Z,48.31
2023-05-08T08:57:57.489Z,48.07
2023-05-08T09:00:28.617Z,48.04
2023-05-08T09:02:56.625Z,47.80
2023-05-08T09:05:26.437Z,46.74
2023-05-08T09:07:54.492Z,46.33
2023-05-08T09:10:23.482Z,45.76
2023-05-08T09:12:51.663Z,45.71
2023-05-08T09:15:19.816Z,45.93
2023-05-08T09:17:47.792Z,46.12
2023-05-08T09:20:18.863Z,46.07
2023-05-08T09:22:47.266Z,45.65
2023-05-08T09:25:15.065Z,45.36
2023-05-08T09:27:42.983Z,44.91
2023-05-08T09:30:12.605Z,45.06
2023-05-08T09:32:42.351Z,45.46
2023-05-08T09:35:11.767Z,45.62
2023-05-08T09:37:40.723Z,45.46
2023-05-08T09:40:14.393Z,45.14
2023-05-08T09:42:42.476Z,44.99
2023-05-08T09:45:10.926Z,45.17
2023-05-08T09:47:39.593Z,44.46
2023-05-08T09:50:10.371Z,44.15
2023-05-08T09:52:38.827Z,44.43
2023-05-08T09:55:07.001Z,44.41
2023-05-08T09:57:39.358Z,44.88
2023-05-08T10:00:11.533Z,44.64
2023-05-08T10:02:40.875Z,45.07
2023-05-08T10:05:25.273Z,45.61
2023-05-08T10:07:53.708Z,45.87
2023-05-08T10:10:28.178Z,46.37
2023-05-08T10:12:56.911Z,46.33
2023-05-08T10:15:31.626Z,46.75
2023-05-08T10:18:05.033Z,47.47
2023-05-08T10:20:33.749Z,47.66
2023-05-08T10:23:03.485Z,47.46
2023-05-08T10:25:32.900Z,47.42
2023-05-08T10:28:27.226Z,46.70
2023-05-08T10:30:57.003Z,45.53
2023-05-08T10:33:31.057Z,45.46
2023-05-08T10:36:00.263Z,45.64
2023-05-08T10:38:28.275Z,46.31
2023-05-08T10:40:59.784Z,46.47
2023-05-08T10:43:29.225Z,46.09
2023-05-08T10:45:58.107Z,46.09
2023-05-08T10:48:31.632Z,45.94
2023-05-08T10:51:18.073Z,45.80
2023-05-08T10:53:52.001Z,45.25
2023-05-08T10:56:26.229Z,44.82
2023-05-08T10:58:58.011Z,44.47
2023-05-08T11:01:26.382Z,43.90
2023-05-08T11:03:56.010Z,43.10
2023-05-08T11:06:43.082Z,42.76
2023-05-08T11:09:19.765Z,42.28
2023-05-08T11:11:52.814Z,41.91
2023-05-08T11:14:21.548Z,41.80
2023-05-08T11:16:59.900Z,41.62
2023-05-08T11:19:28.420Z,41.73
2023-05-08T11:22:12.694Z,42.05
2023-05-08T11:24:46.907Z,42.40
2023-05-08T11:27:15.978Z,42.56
2023-05-08T11:29:45.067Z,42.92
2023-05-08T11:32:12.777Z,42.70
2023-05-08T11:34:43.985Z,42.65
2023-05-08T11:37:16.677Z,42.30
2023-05-08T11:39:44.583Z,42.25
2023-05-08T11:42:24.429Z,42.50
2023-05-08T11:45:06.566Z,42.55
2023-05-08T11:47:38.747Z,42.90
2023-05-08T11:50:07.945Z,42.85
2023-05-08T11:52:36.284Z,42.46
2023-05-08T11:55:04.756Z,42.42
2023-05-08T11:57:33.325Z,41.94
2023-05-08T12:00:05.224Z,41.83
2023-05-08T12:02:43.973Z,41.59
2023-05-08T12:05:12.004Z,41.55
2023-05-08T12:07:44.145Z,41.80
2023-05-08T12:10:12.599Z,41.77
2023-05-08T12:12:41.328Z,41.66
2023-05-08T12:15:10.352Z,42.02
2023-05-08T12:17:38.303Z,42.24
2023-05-08T12:20:15.880Z,42.51
2023-05-08T12:22:54.326Z,42.99
2023-05-08T12:25:22.112Z,42.79
2023-05-08T12:27:49.880Z,42.47
2023-05-08T12:30:18.286Z,42.31
2023-05-08T12:32:47.249Z,41.46
2023-05-08T12:35:15.974Z,41.03
2023-05-08T12:37:44.936Z,40.56
2023-05-08T12:40:29.467Z,40.67
2023-05-08T12:42:57.486Z,40.63
2023-05-08T12:45:26.873Z,40.10
2023-05-08T12:47:58.642Z,39.99
2023-05-08T12:50:26.435Z,40.05
2023-05-08T12:52:54.341Z,40.33
2023-05-08T12:55:25.684Z,40.14
2023-05-08T12:58:04.394Z,40.19
2023-05-08T13:00:42.752Z,39.80
2023-05-08T13:03:12.030Z,39.40
2023-05-08T13:05:43.868Z,39.86
2023-05-08T13:08:11.632Z,40.19
2023-05-08T13:10:55.881Z,40.50
2023-05-08T13:13:25.817Z,41.16
2023-05-08T13:15:55.105Z,41.37
2023-05-08T13:18:27.729Z,41.25
2023-05-08T13:20:56.302Z,41.72
2023-05-08T13:23:24.288Z,42.02
2023-05-08T13:25:52.019Z,41.69
2023-05-08T13:28:19.716Z,41.65
2023-05-08T13:30:47.438Z,41.69
2023-05-08T13:33:15.429Z,41.82
2023-05-08T13:35:43.261Z,41.76
2023-05-08T13:38:11.107Z,41.65
2023-05-08T13:40:38.933Z,41.71
2023-05-08T13:43:06.966Z,41.11
2023-05-08T13:45:34.727Z,40.83
2023-05-08T13:48:02.690Z,41.31
2023-05-08T13:50:30.593Z,41.67
2023-05-08T13:52:58.298Z,41.50
2023-05-08T13:55:26.376Z,40.77
2023-05-08T13:57:54.177Z,40.50
2023-05-08T14:00:21.965Z,40.79
2023-05-08T14:02:52.243Z,40.56
2023-05-08T14:05:20.971Z,39.82
2023-05-08T14:07:48.662Z,39.50
2023-05-08T14:10:17.372Z,39.90
2023-05-08T14:12:45.759Z,39.34
2023-05-08T14:15:13.714Z,38.86
2023-05-08T14:17:42.434Z,38.97
2023-05-08T14:20:12.061Z,39.02
2023-05-08T14:22:40.178Z,38.74
2023-05-08T14:25:08.447Z,38.94
2023-05-08T14:27:36.385Z,39.46
2023-05-08T14:30:04.366Z,39.63
2023-05-08T14:32:32.432Z,39.04
2023-05-08T14:35:00.335Z,38.14
2023-05-08T14:37:28.035Z,38.48
2023-05-08T14:39:57.781Z,38.73
2023-05-08T14:42:25.612Z,39.09
2023-05-08T14:44:53.526Z,39.42
2023-05-08T14:47:23.630Z,39.41
2023-05-08T14:49:53.631Z,39.25
2023-05-08T14:52:21.610Z,39.42
2023-05-08T14:54:53.818Z,39.79
2023-05-08T14:57:22.041Z,40.47
2023-05-08T14:59:55.068Z,41.19
2023-05-08T15:02:24.134Z,41.40
2023-05-08T15:04:52.019Z,41.41
2023-05-08T15:07:19.739Z,41.04
2023-05-08T15:09:48.069Z,39.77
2023-05-08T15:12:15.747Z,39.27
2023-05-08T15:14:43.441Z,39.63
2023-05-08T15:17:11.193Z,39.85
2023-05-08T15:19:39.280Z,40.02
2023-05-08T15:22:07.143Z,39.62
2023-05-08T15:24:35.198Z,39.73
2023-05-08T15:27:03.099Z,39.98
2023-05-08T15:29:30.828Z,39.88
2023-05-08T15:31:58.576Z,39.59
2023-05-08T15:34:29.123Z,39.70
2023-05-08T15:37:00.317Z,39.93
2023-05-08T15:39:28.153Z,39.80
2023-05-08T15:41:56.348Z,40.01
2023-05-08T15:44:26.605Z,39.65
2023-05-08T15:46:56.673Z,39.22
2023-05-08T15:49:25.987Z,39.27
2023-05-08T15:51:54.231Z,39.16
2023-05-08T15:54:22.374Z,39.37
2023-05-08T15:56:50.387Z,39.51
2023-05-08T15:59:18.243Z,39.62
2023-05-08T16:01:47.075Z,39.81
2023-05-08T16:04:15.028Z,39.86
2023-05-08T16:06:42.784Z,39.98
2023-05-08T16:09:10.584Z,40.03
2023-05-08T16:11:38.457Z,39.71
2023-05-08T16:14:06.253Z,39.38
2023-05-08T16:16:34.052Z,39.35
2023-05-08T16:19:01.805Z,39.63
2023-05-08T16:21:29.619Z,39.57
2023-05-08T16:23:57.835Z,39.65
2023-05-08T16:26:26.315Z,39.43
2023-05-08T16:28:54.165Z,39.10
2023-05-08T16:31:22.031Z,39.25
2023-05-08T16:33:50.084Z,39.19
2023-05-08T16:36:17.808Z,39.41
2023-05-08T16:38:45.741Z,39.75
2023-05-08T16:41:13.787Z,40.00
2023-05-08T16:43:41.608Z,39.98
2023-05-08T16:46:09.391Z,40.01
2023-05-08T16:48:37.416Z,40.10
2023-05-08T16:51:05.112Z,40.25
2023-05-08T16:53:33.408Z,40.39
2023-05-08T16:56:03.030Z,40.41
2023-05-08T16:58:30.754Z,40.48
2023-05-08T17:00:58.555Z,40.70
2023-05-08T17:03:26.774Z,41.00
2023-05-08T17:05:54.642Z,41.08
2023-05-08T17:08:22.508Z,41.13
2023-05-08T17:10:50.491Z,41.45
2023-05-08T17:13:18.365Z,41.81
2023-05-08T17:15:46.425Z,42.06
2023-05-08T17:18:14.366Z,42.31
2023-05-08T17:20:42.428Z,42.66
2023-05-08T17:23:10.184Z,42.85
2023-05-08T17:25:38.105Z,43.10
2023-05-08T17:28:06.086Z,43.25
2023-05-08T17:30:33.956Z,43.34
2023-05-08T17:33:01.830Z,43.24
2023-05-08T17:35:29.585Z,43.22
2023-05-08T17:37:57.346Z,43.24
2023-05-08T17:40:26.281Z,43.28
2023-05-08T17:42:54.050Z,43.31
2023-05-08T17:45:21.974Z,43.42
2023-05-08T17:47:49.815Z,43.57
2023-05-08T17:50:17.777Z,43.62
2023-05-08T17:52:46.251Z,43.66
2023-05-08T17:55:14.292Z,43.91
2023-05-08T17:57:42.027Z,44.14
2023-05-08T18:00:10.045Z,44.31
2023-05-08T18:02:39.850Z,44.56
2023-05-08T18:05:09.035Z,44.65
2023-05-08T18:07:36.630Z,44.87
2023-05-08T18:10:05.099Z,44.80
2023-05-08T18:12:32.911Z,44.93
2023-05-08T18:15:03.421Z,45.07
2023-05-08T18:17:31.423Z,45.04
2023-05-08T18:19:59.719Z,45.07
2023-05-08T18:22:27.578Z,45.18
2023-05-08T18:24:58.270Z,45.22
2023-05-08T18:27:26.659Z,45.29
2023-05-08T18:29:54.514Z,45.39
2023-05-08T18:32:22.779Z,45.67
2023-05-08T18:34:51.027Z,46.03
2023-05-08T18:37:18.757Z,46.28
2023-05-08T18:39:46.562Z,46.74
2023-05-08T18:42:14.314Z,46.97
2023-05-08T18:44:42.095Z,47.23
2023-05-08T18:47:09.884Z,47.56
2023-05-08T18:49:37.546Z,47.97
2023-05-08T18:52:05.343Z,48.11
2023-05-08T18:54:33.042Z,48.12
2023-05-08T18:57:00.842Z,48.23
2023-05-08T18:59:28.490Z,48.14
2023-05-08T19:01:56.451Z,48.17
2023-05-08T19:04:24.249Z,48.35
2023-05-08T19:06:52.033Z,48.46
2023-05-08T19:09:20.028Z,48.60
2023-05-08T19:11:47.836Z,48.85
2023-05-08T19:14:15.906Z,48.75
2023-05-08T19:16:43.622Z,49.00
2023-05-08T19:19:11.489Z,49.08
2023-05-08T19:21:39.383Z,48.99
2023-05-08T19:24:07.882Z,49.12
2023-05-08T19:26:35.845Z,49.22
2023-05-08T19:29:03.754Z,49.29
2023-05-08T19:31:31.602Z,49.41
2023-05-08T19:33:59.386Z,49.44
2023-05-08T19:36:27.421Z,49.57
2023-05-08T19:38:56.266Z,49.75
2023-05-08T19:41:24.350Z,49.82
2023-05-08T19:43:52.024Z,50.03
2023-05-08T19:46:20.561Z,50.18
2023-05-08T19:48:48.368Z,50.28
2023-05-08T19:51:16.640Z,50.43
2023-05-08T19:53:44.636Z,50.71
2023-05-08T19:56:12.423Z,50.84
2023-05-08T19:58:40.661Z,51.21
2023-05-08T20:01:08.467Z,51.33
2023-05-08T20:03:36.406Z,51.56
2023-05-08T20:06:04.353Z,51.63
2023-05-08T20:08:32.126Z,51.62
2023-05-08T20:11:02.458Z,51.86
2023-05-08T20:13:30.203Z,52.08
2023-05-08T20:15:58.905Z,52.26
2023-05-08T20:18:26.902Z,52.65
2023-05-08T20:20:54.618Z,52.98
2023-05-08T20:23:22.862Z,53.23
2023-05-08T20:25:54.287Z,53.48
2023-05-08T20:28:25.141Z,53.69
2023-05-08T20:30:53.110Z,53.89
2023-05-08T20:33:21.007Z,54.27
2023-05-08T20:35:48.897Z,54.61
2023-05-08T20:38:16.751Z,55.05
2023-05-08T20:40:44.924Z,55.45
2023-05-08T20:43:13.223Z,55.88
2023-05-08T20:45:40.877Z,56.32
2023-05-08T20:48:08.591Z,56.49
2023-05-08T20:50:36.346Z,56.64
2023-05-08T20:53:04.464Z,56.86
2023-05-08T20:55:32.346Z,57.03
2023-05-08T20:58:00.647Z,57.27
2023-05-08T21:00:28.460Z,57.44
2023-05-08T21:02:56.555Z,57.45
2023-05-08T21:05:24.657Z,57.73
2023-05-08T21:07:52.735Z,57.89
2023-05-08T21:10:20.432Z,58.20
2023-05-08T21:12:48.814Z,58.23
2023-05-08T21:15:16.834Z,58.25
2023-05-08T21:17:44.534Z,58.37
2023-05-08T21:20:12.865Z,58.54
2023-05-08T21:22:40.795Z,58.43
2023-05-08T21:25:18.446Z,58.37
2023-05-08T21:27:46.369Z,58.37
2023-05-08T21:30:16.654Z,58.31
2023-05-08T21:32:45.007Z,58.49
2023-05-08T21:35:13.616Z,58.55
2023-05-08T21:37:41.593Z,58.94
2023-05-08T21:40:09.949Z,59.26
2023-05-08T21:42:38.650Z,59.43
2023-05-08T21:45:07.388Z,59.60
2023-05-08T21:47:35.736Z,59.64
2023-05-08T21:50:03.591Z,59.73
2023-05-08T21:52:31.538Z,59.79
2023-05-08T21:54:59.473Z,59.99
2023-05-08T21:57:27.219Z,59.90
2023-05-08T21:59:54.971Z,59.90
2023-05-08T22:02:23.056Z,59.90
2023-05-08T22:04:50.901Z,60.00
2023-05-08T22:07:21.005Z,60.01
2023-05-08T22:09:49.125Z,59.83
2023-05-08T22:12:16.978Z,59.95
2023-05-08T22:14:44.655Z,59.95
2023-05-08T22:17:12.630Z,59.87
2023-05-08T22:19:40.332Z,59.87
2023-05-08T22:22:08.262Z,59.82
2023-05-08T22:24:35.936Z,59.73
2023-05-08T22:27:03.712Z,59.58
2023-05-08T22:29:31.731Z,59.55
2023-05-08T22:31:59.440Z,59.44
2023-05-08T22:34:27.332Z,59.41
2023-05-08T22:36:55.325Z,59.52
2023-05-08T22:39:23.051Z,59.57
2023-05-08T22:41:50.804Z,59.77
2023-05-08T22:44:18.512Z,59.86
2023-05-08T22:46:46.316Z,59.94
2023-05-08T22:49:14.362Z,59.91
2023-05-08T22:51:42.147Z,59.98
2023-05-08T22:54:09.948Z,59.95
2023-05-08T22:56:38.478Z,59.96
2023-05-08T22:59:06.779Z,59.94
2023-05-08T23:01:34.468Z,59.90
2023-05-08T23:04:02.309Z,59.98
2023-05-08T23:06:30.490Z,59.94
2023-05-08T23:08:58.523Z,59.84
2023-05-08T23:11:26.965Z,59.90
2023-05-08T23:13:54.975Z,59.88
2023-05-08T23:16:22.865Z,59.79
2023-05-08T23:18:51.047Z,59.82
2023-05-08T23:21:18.900Z,59.87
2023-05-08T23:23:47.942Z,59.72
2023-05-08T23:26:15.889Z,59.71
2023-05-08T23:28:43.604Z,59.43
2023-05-08T23:31:11.430Z,59.22
2023-05-08T23:33:39.617Z,59.24
2023-05-08T23:36:07.941Z,59.02
2023-05-08T23:38:35.626Z,58.81
2023-05-08T23:41:03.508Z,58.74
2023-05-08T23:43:31.361Z,58.58
2023-05-08T23:45:59.275Z,58.24
2023-05-08T23:48:27.573Z,58.08
2023-05-08T23:50:55.312Z,57.98
2023-05-08T23:53:23.487Z,57.86
2023-05-08T23:55:52.608Z,57.59
2023-05-08T23:58:20.481Z,57.31
